Time;durP1;ratioP1;P1;durP2;ratioP2;P2;SDS_P1;SDS_P2;PMS_P1;PMS_P2;Temp;Humidity;BMP_temperature;BMP_pressure;BME280_temperature;BME280_humidity;BME280_pressure;Samples;Min_cycle;Max_cycle;Signal;HPM_P1;HPM_P2
2023/09/11 00:01:50;;;;;;;2.60;1.45;;;;;;;11.86;73.66;96769.44;5093181;28;20134;-68
2023/09/11 00:04:17;;;;;;;4.50;1.30;;;;;;;11.87;72.66;96773.75;5093245;28;20541;-64
2023/09/11 00:06:46;;;;;;;2.53;1.30;;;;;;;11.82;72.69;96772.25;5093146;28;20048;-66
2023/09/11 00:09:12;;;;;;;4.55;1.45;;;;;;;11.75;71.82;96764.63;5093083;28;20052;-68
2023/09/11 00:11:39;;;;;;;5.45;1.50;;;;;;;11.68;71.75;96768.38;5093413;28;20052;-69
2023/09/11 00:14:06;;;;;;;2.28;1.20;;;;;;;11.61;72.01;96762.56;5093102;28;20087;-65
2023/09/11 00:16:34;;;;;;;3.28;2.03;;;;;;;11.53;72.66;96759.34;5093359;28;20059;-63
2023/09/11 00:19:01;;;;;;;2.38;1.63;;;;;;;11.52;73.91;96768.13;5093149;28;20059;-65
2023/09/11 00:21:28;;;;;;;2.35;1.50;;;;;;;11.50;74.22;96762.13;5093170;28;20048;-63
2023/09/11 00:23:56;;;;;;;5.55;1.55;;;;;;;11.54;73.75;96758.47;5093182;28;20040;-68
2023/09/11 00:26:23;;;;;;;7.75;1.55;;;;;;;11.57;74.00;96760.97;5094545;28;20505;-68
2023/09/11 00:28:50;;;;;;;3.45;1.30;;;;;;;11.62;73.05;96771.28;5097105;28;20054;-65
2023/09/11 00:31:17;;;;;;;4.25;1.67;;;;;;;11.61;72.65;96767.78;5097058;28;20554;-67
2023/09/11 00:33:44;;;;;;;2.20;1.58;;;;;;;11.54;72.39;96760.22;5097057;28;20045;-67
2023/09/11 00:36:11;;;;;;;1.55;1.45;;;;;;;11.49;72.53;96768.25;5097063;28;20273;-66
2023/09/11 00:38:39;;;;;;;3.03;1.15;;;;;;;11.43;73.39;96761.47;5096978;28;20460;-69
2023/09/11 00:41:07;;;;;;;1.98;1.20;;;;;;;11.39;73.41;96765.13;5096939;28;20039;-65
2023/09/11 00:43:34;;;;;;;2.63;1.40;;;;;;;11.37;73.76;96759.97;5096810;28;20048;-67
2023/09/11 00:46:01;;;;;;;2.30;1.45;;;;;;;11.37;72.77;96764.31;5096648;28;20103;-64
2023/09/11 00:48:29;;;;;;;3.25;1.30;;;;;;;11.35;73.39;96760.94;5096796;28;20110;-68
2023/09/11 00:50:57;;;;;;;2.25;1.60;;;;;;;11.32;73.11;96764.50;5097087;28;20077;-65
2023/09/11 00:53:24;;;;;;;2.92;1.13;;;;;;;11.27;72.96;96757.72;5096748;28;20493;-61
2023/09/11 00:55:52;;;;;;;4.20;1.58;;;;;;;11.29;72.61;96758.53;5096555;28;20115;-66
2023/09/11 00:58:23;;;;;;;3.00;1.40;;;;;;;11.27;72.82;96755.13;5096433;28;20056;-64
2023/09/11 01:00:50;;;;;;;3.65;1.40;;;;;;;11.27;72.74;96750.75;5096623;28;20052;-64
2023/09/11 01:03:17;;;;;;;2.42;1.33;;;;;;;11.29;72.68;96761.16;5096446;28;20081;-67
2023/09/11 01:05:45;;;;;;;1.80;1.20;;;;;;;11.24;72.48;96753.47;5096574;28;20439;-68
2023/09/11 01:08:12;;;;;;;4.50;1.33;;;;;;;11.14;74.03;96745.13;5096521;28;20056;-64
2023/09/11 01:10:39;;;;;;;1.90;1.30;;;;;;;11.05;74.58;96743.66;5096395;28;20067;-68
2023/09/11 01:13:06;;;;;;;6.32;1.50;;;;;;;11.01;75.24;96738.63;5096584;28;20048;-69
2023/09/11 01:15:38;;;;;;;1.73;1.27;;;;;;;10.93;75.62;96731.88;5096487;28;20050;-62
2023/09/11 01:18:12;;;;;;;4.85;1.38;;;;;;;10.91;75.58;96735.47;5096117;28;20126;-69
2023/09/11 01:20:55;;;;;;;2.85;1.40;;;;;;;10.93;75.00;96741.50;5096216;28;20561;-63
2023/09/11 01:23:51;;;;;;;5.05;1.70;;;;;;;10.85;74.56;96734.78;5096321;28;20101;-66
2023/09/11 01:26:37;;;;;;;2.55;1.52;;;;;;;10.78;75.06;96745.53;5096024;28;20090;-71
2023/09/11 01:29:08;;;;;;;2.70;1.55;;;;;;;10.70;75.53;96735.34;5096195;28;20079;-64
2023/09/11 01:31:37;;;;;;;2.65;1.77;;;;;;;10.72;77.75;96733.53;5095923;28;20499;-65
2023/09/11 01:34:05;;;;;;;5.28;1.70;;;;;;;10.67;77.34;96735.44;5095988;28;20482;-68
2023/09/11 01:36:33;;;;;;;4.25;1.42;;;;;;;10.67;77.63;96731.06;5096021;28;20052;-70
2023/09/11 01:39:01;;;;;;;1.40;1.30;;;;;;;10.72;76.77;96736.97;5095151;28;20460;-69
2023/09/11 01:41:35;;;;;;;1.77;1.35;;;;;;;10.69;75.62;96728.41;5095808;28;20105;-66
2023/09/11 01:44:10;;;;;;;11.98;2.33;;;;;;;10.72;75.72;96730.91;5095684;28;20062;-64
2023/09/11 01:46:37;;;;;;;1.73;1.40;;;;;;;10.67;76.14;96731.06;5095586;28;20043;-72
2023/09/11 01:49:07;;;;;;;2.88;1.63;;;;;;;10.64;76.46;96728.56;5095620;28;20046;-65
2023/09/11 01:51:37;;;;;;;1.48;1.17;;;;;;;10.59;76.12;96731.34;5095583;28;20047;-66
2023/09/11 01:54:05;;;;;;;4.43;1.98;;;;;;;10.56;76.00;96733.19;5095474;28;20554;-72
2023/09/11 01:56:32;;;;;;;11.18;1.58;;;;;;;10.58;75.58;96732.25;5095535;28;20044;-64
2023/09/11 01:58:59;;;;;;;1.63;1.20;;;;;;;10.53;75.14;96731.53;5095341;28;20040;-67
2023/09/11 02:01:27;;;;;;;3.17;1.40;;;;;;;10.49;75.17;96737.78;5095396;28;20048;-66
2023/09/11 02:03:54;;;;;;;4.00;1.70;;;;;;;10.49;75.70;96730.81;5095458;28;20069;-71
2023/09/11 02:06:21;;;;;;;9.60;1.92;;;;;;;10.49;75.79;96729.94;5095341;28;20048;-68
2023/09/11 02:08:48;;;;;;;4.47;1.40;;;;;;;10.48;76.13;96725.63;5095230;28;20083;-66
2023/09/11 02:11:15;;;;;;;2.30;1.38;;;;;;;10.42;75.90;96724.03;5095221;28;20040;-65
2023/09/11 02:13:42;;;;;;;3.55;1.50;;;;;;;10.34;75.83;96716.47;5095124;28;20086;-68
2023/09/11 02:16:09;;;;;;;3.53;1.40;;;;;;;10.35;77.25;96720.78;5095097;28;20048;-66
2023/09/11 02:18:39;;;;;;;2.55;1.38;;;;;;;10.36;76.42;96711.19;5095048;28;20052;-71
2023/09/11 02:21:06;;;;;;;2.72;1.73;;;;;;;10.36;76.23;96716.41;5095021;28;20044;-73
2023/09/11 02:23:33;;;;;;;3.33;1.50;;;;;;;10.36;75.91;96711.19;5094957;28;20460;-69
2023/09/11 02:26:01;;;;;;;4.00;1.60;;;;;;;10.32;75.96;96710.44;5094940;28;20056;-72
2023/09/11 02:28:28;;;;;;;1.70;1.40;;;;;;;10.30;75.56;96709.63;5094635;28;20056;-66
2023/09/11 02:30:57;;;;;;;1.70;1.40;;;;;;;10.31;74.55;96708.72;5094944;28;20091;-67
2023/09/11 02:33:25;;;;;;;2.58;1.20;;;;;;;10.25;74.63;96716.78;5094922;28;20072;-68
2023/09/11 02:35:58;;;;;;;2.38;1.30;;;;;;;10.16;74.54;96707.47;5094856;28;20055;-72
2023/09/11 02:38:25;;;;;;;4.22;1.20;;;;;;;10.15;75.11;96703.19;5094815;28;20406;-74
2023/09/11 02:40:52;;;;;;;3.75;1.60;;;;;;;10.13;75.03;96711.94;5094610;28;20494;-72
2023/09/11 02:43:19;;;;;;;1.67;1.50;;;;;;;10.16;75.31;96706.63;5094659;28;20075;-69
2023/09/11 02:45:46;;;;;;;2.30;1.35;;;;;;;10.19;75.38;96701.28;5094527;28;20071;-67
2023/09/11 02:48:13;;;;;;;1.95;1.35;;;;;;;10.24;74.92;96710.69;5094293;28;20086;-69
2023/09/11 02:50:40;;;;;;;1.98;1.83;;;;;;;10.27;76.71;96706.25;5093346;28;20055;-66
2023/09/11 02:53:12;;;;;;;2.17;1.27;;;;;;;10.29;75.58;96712.31;5094404;28;20047;-66
2023/09/11 02:55:40;;;;;;;2.60;1.50;;;;;;;10.23;74.92;96708.97;5094502;28;20468;-67
2023/09/11 02:58:07;;;;;;;3.70;1.50;;;;;;;10.24;75.53;96712.47;5094238;28;20055;-69
2023/09/11 03:00:34;;;;;;;1.80;1.35;;;;;;;10.15;73.99;96718.00;5094268;28;20051;-62
2023/09/11 03:03:02;;;;;;;2.97;1.80;;;;;;;10.09;74.37;96719.88;5094148;28;20044;-68
2023/09/11 03:05:31;;;;;;;3.20;1.58;;;;;;;10.10;75.31;96721.63;5094242;28;20155;-68
2023/09/11 03:07:59;;;;;;;3.25;1.30;;;;;;;10.14;74.62;96717.13;5093892;28;20135;-66
2023/09/11 03:10:28;;;;;;;2.92;1.40;;;;;;;10.16;75.20;96719.69;5094156;28;20098;-68
2023/09/11 03:12:55;;;;;;;1.63;1.27;;;;;;;10.09;74.57;96719.88;5094111;28;20098;-71
2023/09/11 03:15:26;;;;;;;2.20;1.60;;;;;;;9.98;75.53;96719.41;5094063;28;20048;-64
2023/09/11 03:17:53;;;;;;;2.08;1.50;;;;;;;9.93;75.93;96724.78;5094289;28;20490;-65
2023/09/11 03:20:20;;;;;;;2.03;1.48;;;;;;;9.96;74.70;96715.97;5094306;28;20044;-69
2023/09/11 03:22:47;;;;;;;4.75;1.67;;;;;;;9.84;76.54;96717.22;5093920;28;20040;-69
2023/09/11 03:25:14;;;;;;;4.63;1.55;;;;;;;9.86;76.21;96720.66;5093965;28;20143;-68
2023/09/11 03:27:44;;;;;;;3.45;1.70;;;;;;;9.86;76.68;96707.59;5093631;28;20090;-69
2023/09/11 03:30:12;;;;;;;1.40;1.27;;;;;;;9.89;75.65;96717.06;5093795;28;20056;-65
2023/09/11 03:32:39;;;;;;;1.75;1.40;;;;;;;9.89;76.61;96717.94;5093690;28;20044;-68
2023/09/11 03:35:07;;;;;;;4.25;1.70;;;;;;;9.84;77.69;96720.69;5093624;28;20044;-61
2023/09/11 03:37:34;;;;;;;2.78;1.80;;;;;;;9.80;77.63;96721.72;5093518;28;20059;-69
2023/09/11 03:40:06;;;;;;;2.53;1.92;;;;;;;9.82;78.63;96724.28;5093480;28;20466;-73
2023/09/11 03:42:34;;;;;;;3.35;1.70;;;;;;;9.85;77.31;96718.94;5093473;28;20059;-67
2023/09/11 03:45:02;;;;;;;5.47;2.03;;;;;;;9.85;77.29;96726.78;5093592;28;20126;-69
2023/09/11 03:47:29;;;;;;;3.80;1.80;;;;;;;9.85;77.19;96730.25;5093309;28;20508;-71
2023/09/11 03:49:57;;;;;;;2.90;1.55;;;;;;;9.88;75.96;96731.06;5093469;28;20409;-63
2023/09/11 03:52:24;;;;;;;2.58;1.77;;;;;;;9.85;76.26;96727.63;5093461;28;20517;-68
2023/09/11 03:54:51;;;;;;;2.75;1.75;;;;;;;9.93;75.69;96729.16;5093366;28;20105;-67
2023/09/11 03:57:18;;;;;;;2.58;1.70;;;;;;;9.96;75.45;96723.81;5093302;28;20087;-64
2023/09/11 03:59:45;;;;;;;3.03;1.80;;;;;;;9.98;74.85;96728.09;5093252;28;20044;-64
2023/09/11 04:02:14;;;;;;;4.00;1.70;;;;;;;10.01;74.82;96734.13;5093102;28;20072;-69
2023/09/11 04:04:41;;;;;;;2.75;1.25;;;;;;;10.01;74.71;96734.97;5093289;28;20123;-69
2023/09/11 04:07:08;;;;;;;6.40;1.75;;;;;;;10.05;74.17;96735.75;5093164;28;20044;-67
2023/09/11 04:09:35;;;;;;;4.25;1.70;;;;;;;9.98;73.60;96730.72;5093260;28;20036;-64
2023/09/11 04:12:05;;;;;;;6.20;2.10;;;;;;;9.97;72.95;96736.00;5093084;28;20097;-65
2023/09/11 04:14:37;;;;;;;1.98;1.60;;;;;;;9.96;73.04;96726.44;5093304;28;20528;-63
2023/09/11 04:17:04;;;;;;;2.10;1.45;;;;;;;9.91;72.89;96724.00;5093084;28;20135;-69
2023/09/11 04:19:33;;;;;;;3.63;1.70;;;;;;;9.89;73.08;96725.78;5093078;28;20044;-62
2023/09/11 04:22:00;;;;;;;5.38;1.63;;;;;;;9.93;72.66;96729.16;5093036;28;20051;-71
2023/09/11 04:24:27;;;;;;;3.63;1.80;;;;;;;9.95;72.57;96729.94;5093073;28;20040;-69
2023/09/11 04:26:54;;;;;;;2.63;1.42;;;;;;;9.91;71.54;96730.97;5093131;28;20081;-61
2023/09/11 04:29:21;;;;;;;3.88;2.20;;;;;;;9.86;71.80;96731.97;5092725;28;20048;-71
2023/09/11 04:31:48;;;;;;;2.58;1.75;;;;;;;9.84;72.46;96731.16;5093454;28;20473;-64
2023/09/11 04:34:15;;;;;;;2.90;1.70;;;;;;;9.88;72.60;96726.69;5092969;28;20086;-66
2023/09/11 04:36:44;;;;;;;4.75;1.45;;;;;;;10.06;72.52;96732.22;5093020;28;20052;-68
2023/09/11 04:39:13;;;;;;;4.25;1.77;;;;;;;10.51;72.40;96733.38;5093143;28;20079;-68
2023/09/11 04:41:40;;;;;;;5.07;1.70;;;;;;;11.18;69.86;96737.97;5093139;28;20048;-65
2023/09/11 04:44:07;;;;;;;4.70;1.60;;;;;;;12.01;66.93;96744.38;5092808;28;20387;-70
2023/09/11 04:46:35;;;;;;;5.07;1.48;;;;;;;12.85;64.26;96737.44;5093129;28;20454;-68
2023/09/11 04:49:02;;;;;;;5.63;1.20;;;;;;;13.74;60.55;96745.75;5092696;28;20058;-68
2023/09/11 04:51:29;;;;;;;2.78;1.42;;;;;;;14.66;58.74;96746.53;5092798;28;20082;-72
2023/09/11 04:53:58;;;;;;;2.63;1.20;;;;;;;15.53;56.29;96749.03;5092996;28;20047;-63
2023/09/11 04:56:25;;;;;;;1.85;1.30;;;;;;;16.42;52.30;96752.03;5092765;28;20048;-70
2023/09/11 04:58:52;;;;;;;3.08;1.42;;;;;;;17.11;51.16;96748.91;5092699;28;20052;-66
2023/09/11 05:01:19;;;;;;;1.30;1.17;;;;;;;17.80;49.35;96745.50;5092770;28;20044;-62
2023/09/11 05:03:46;;;;;;;6.38;1.40;;;;;;;18.52;48.35;96753.28;5092828;28;20102;-70
2023/09/11 05:06:14;;;;;;;2.17;1.23;;;;;;;19.25;46.64;96745.72;5092595;28;20052;-72
2023/09/11 05:08:41;;;;;;;1.48;1.10;;;;;;;19.75;45.28;96754.63;5092445;28;20081;-65
2023/09/11 05:11:09;;;;;;;6.25;1.33;;;;;;;20.41;44.78;96756.94;5092654;28;20563;-68
2023/09/11 05:13:36;;;;;;;2.65;1.23;;;;;;;21.10;43.63;96753.63;5094300;28;20102;-68
2023/09/11 05:16:03;;;;;;;2.40;1.02;;;;;;;21.74;42.55;96743.31;5096256;28;20048;-65
2023/09/11 05:18:31;;;;;;;2.90;1.25;;;;;;;22.50;40.58;96746.97;5096247;28;20075;-67
2023/09/11 05:20:58;;;;;;;2.42;1.23;;;;;;;23.19;39.59;96742.97;5096242;28;20044;-67
2023/09/11 05:23:25;;;;;;;4.70;1.10;;;;;;;23.79;38.07;96744.06;5096167;28;20093;-70
2023/09/11 05:25:52;;;;;;;3.33;1.30;;;;;;;24.27;37.24;96743.44;5096132;28;20056;-71
2023/09/11 05:28:20;;;;;;;3.03;1.00;;;;;;;24.70;37.04;96741.31;5096174;28;20158;-67
2023/09/11 05:30:49;;;;;;;4.45;0.85;;;;;;;25.06;36.79;96744.25;5096063;28;20101;-69
2023/09/11 05:33:17;;;;;;;2.00;1.08;;;;;;;25.41;36.39;96741.03;5095852;28;20102;-70
2023/09/11 05:35:46;;;;;;;3.22;1.10;;;;;;;25.70;36.38;96738.22;5095832;28;20413;-69
2023/09/11 05:38:13;;;;;;;2.15;1.00;;;;;;;26.18;35.26;96738.06;5095898;28;20047;-68
2023/09/11 05:40:40;;;;;;;3.30;1.05;;;;;;;26.56;34.61;96746.00;5095801;28;20048;-65
2023/09/11 05:43:08;;;;;;;3.25;1.23;;;;;;;26.65;34.54;96743.38;5095751;28;20391;-69
2023/09/11 05:45:37;;;;;;;5.45;1.20;;;;;;;26.96;34.98;96741.09;5095769;28;20044;-64
2023/09/11 05:48:04;;;;;;;1.80;0.90;;;;;;;27.35;34.30;96739.84;5095656;28;20146;-70
2023/09/11 05:50:31;;;;;;;3.30;1.35;;;;;;;27.70;34.02;96742.56;5095580;28;20044;-69
2023/09/11 05:52:59;;;;;;;1.95;1.00;;;;;;;28.05;33.36;96752.41;5095463;28;20135;-70
2023/09/11 05:55:26;;;;;;;2.15;1.25;;;;;;;28.38;32.97;96756.00;5095480;28;20127;-65
2023/09/11 05:57:54;;;;;;;3.53;1.23;;;;;;;28.63;32.21;96747.94;5095534;28;20106;-68
2023/09/11 06:00:24;;;;;;;2.55;1.23;;;;;;;28.78;32.03;96749.13;5095375;28;20048;-66
2023/09/11 06:02:52;;;;;;;5.17;1.23;;;;;;;28.83;32.36;96750.28;5095701;28;20048;-63
2023/09/11 06:05:21;;;;;;;4.63;1.60;;;;;;;29.01;32.17;96760.06;5095363;28;20048;-66
2023/09/11 06:07:48;;;;;;;4.60;1.27;;;;;;;29.01;32.22;96760.06;5094971;28;20044;-66
2023/09/11 06:10:16;;;;;;;4.65;1.27;;;;;;;29.13;32.51;96763.22;5095274;28;20050;-64
2023/09/11 06:12:43;;;;;;;2.88;1.20;;;;;;;29.17;32.69;96772.69;5095120;28;20051;-64
2023/09/11 06:15:11;;;;;;;3.10;1.25;;;;;;;29.21;33.18;96775.84;5095219;28;20048;-69
2023/09/11 06:17:39;;;;;;;4.05;1.10;;;;;;;29.10;32.91;96774.34;5095004;28;20043;-64
2023/09/11 06:20:10;;;;;;;4.15;1.30;;;;;;;29.14;32.44;96778.41;5094997;28;20055;-65
2023/09/11 06:22:38;;;;;;;5.13;1.23;;;;;;;29.24;32.72;96775.50;5094916;28;20044;-69
2023/09/11 06:25:07;;;;;;;3.05;1.50;;;;;;;29.22;31.93;96781.06;5094650;28;20059;-68
2023/09/11 06:27:34;;;;;;;3.97;1.30;;;;;;;29.17;31.67;96777.22;5094916;28;20070;-68
2023/09/11 06:30:05;;;;;;;2.40;1.05;;;;;;;29.07;31.48;96782.78;5094785;28;20044;-62
2023/09/11 06:32:32;;;;;;;2.15;1.20;;;;;;;28.99;32.35;96776.38;5094688;28;20075;-67
2023/09/11 06:35:01;;;;;;;5.60;1.35;;;;;;;28.97;31.22;96778.41;5094754;28;20052;-64
2023/09/11 06:37:29;;;;;;;2.40;1.27;;;;;;;28.78;31.54;96776.03;5094810;28;20119;-63
2023/09/11 06:39:56;;;;;;;6.15;1.15;;;;;;;28.70;31.28;96785.78;5094673;28;20044;-64
2023/09/11 06:42:26;;;;;;;4.32;1.00;;;;;;;28.57;32.27;96778.22;5094561;28;20051;-67
2023/09/11 06:44:53;;;;;;;4.07;1.63;;;;;;;28.60;31.86;96790.50;5094487;28;20060;-67
2023/09/11 06:47:21;;;;;;;6.18;0.90;;;;;;;28.68;32.20;96787.78;5094440;28;20541;-66
2023/09/11 06:49:48;;;;;;;3.38;1.20;;;;;;;28.68;30.68;96779.72;5094320;28;20052;-66
2023/09/11 06:52:16;;;;;;;1.65;0.82;;;;;;;28.73;31.16;96781.91;5094307;28;20493;-68
2023/09/11 06:54:45;;;;;;;3.10;0.98;;;;;;;28.62;31.72;96777.69;5094430;28;20052;-66
2023/09/11 06:57:13;;;;;;;2.10;0.95;;;;;;;28.60;31.29;96777.03;5094360;28;20126;-68
2023/09/11 06:59:40;;;;;;;1.13;1.00;;;;;;;28.61;31.10;96778.72;5094294;28;20071;-64
2023/09/11 07:02:08;;;;;;;2.17;1.10;;;;;;;28.49;31.13;96780.88;5094316;28;20043;-66
2023/09/11 07:04:35;;;;;;;7.18;1.23;;;;;;;28.46;30.96;96782.06;5094250;28;20505;-68
2023/09/11 07:07:02;;;;;;;2.15;1.00;;;;;;;28.67;30.17;96782.56;5094115;28;20055;-68
2023/09/11 07:09:29;;;;;;;6.40;2.75;;;;;;;28.84;28.68;96776.19;5093957;28;20067;-66
2023/09/11 07:11:58;;;;;;;4.47;1.25;;;;;;;28.98;27.65;96784.63;5094199;28;20056;-67
2023/09/11 07:14:25;;;;;;;1.67;0.90;;;;;;;28.91;26.74;96778.19;5094057;28;20048;-65
2023/09/11 07:16:52;;;;;;;3.08;1.60;;;;;;;29.11;28.16;96779.56;5093941;28;20082;-66
2023/09/11 07:19:19;;;;;;;2.40;1.10;;;;;;;29.31;27.83;96776.50;5094096;28;20048;-65
2023/09/11 07:21:46;;;;;;;3.78;1.10;;;;;;;29.42;27.03;96779.84;5093886;28;20514;-63
2023/09/11 07:24:13;;;;;;;2.20;1.00;;;;;;;29.55;26.36;96780.16;5093967;28;20135;-65
2023/09/11 07:26:40;;;;;;;9.00;1.00;;;;;;;29.43;23.03;96768.06;5093726;28;20044;-66
2023/09/11 07:29:09;;;;;;;2.40;1.17;;;;;;;29.39;20.40;96768.41;5093624;28;20059;-66
2023/09/11 07:31:36;;;;;;;2.17;0.93;;;;;;;28.75;19.75;96772.66;5093836;28;20382;-64
2023/09/11 07:34:04;;;;;;;2.90;1.10;;;;;;;27.71;18.12;96756.81;5093727;28;20107;-64
2023/09/11 07:36:31;;;;;;;4.13;1.10;;;;;;;27.48;20.51;96765.41;5093020;28;20044;-65
2023/09/11 07:38:58;;;;;;;2.35;0.75;;;;;;;26.57;18.08;96766.44;5093764;28;20141;-66
2023/09/11 07:41:25;;;;;;;0.75;0.75;;;;;;;26.31;18.52;96767.19;5093517;28;20044;-65
2023/09/11 07:43:53;;;;;;;2.42;0.80;;;;;;;26.06;18.38;96771.44;5093446;28;20440;-64
2023/09/11 07:46:24;;;;;;;4.13;1.00;;;;;;;26.14;19.81;96774.22;5093510;28;20473;-63
2023/09/11 07:48:51;;;;;;;1.33;1.08;;;;;;;25.93;18.21;96767.31;5093437;28;20501;-65
2023/09/11 07:51:18;;;;;;;2.70;0.90;;;;;;;25.75;19.24;96769.94;5093459;28;20067;-63
2023/09/11 07:53:45;;;;;;;3.47;0.90;;;;;;;26.08;18.38;96766.78;5093421;28;20098;-64
2023/09/11 07:56:14;;;;;;;4.55;1.02;;;;;;;25.96;18.63;96764.31;5093158;28;20071;-64
2023/09/11 07:58:41;;;;;;;1.38;0.80;;;;;;;26.19;19.31;96768.41;5093148;28;20101;-69
2023/09/11 08:01:08;;;;;;;1.77;0.90;;;;;;;26.42;19.77;96770.66;5093303;28;20040;-64
2023/09/11 08:03:37;;;;;;;4.72;1.15;;;;;;;26.71;17.07;96765.06;5093339;28;20070;-66
2023/09/11 08:06:04;;;;;;;1.30;0.63;;;;;;;27.11;18.29;96760.19;5093301;28;20040;-64
2023/09/11 08:08:31;;;;;;;1.73;1.00;;;;;;;27.37;19.41;96762.00;5092737;28;20530;-68
2023/09/11 08:10:58;;;;;;;5.03;1.02;;;;;;;27.37;18.85;96761.16;5093169;28;20087;-66
2023/09/11 08:13:26;;;;;;;3.13;0.95;;;;;;;27.24;20.40;96753.56;5093278;28;20048;-70
2023/09/11 08:15:53;;;;;;;2.25;1.00;;;;;;;27.23;21.84;96755.38;5093118;28;20056;-66
2023/09/11 08:18:21;;;;;;;1.10;0.90;;;;;;;26.99;19.46;96751.53;5093155;28;20485;-63
2023/09/11 08:20:50;;;;;;;2.10;0.80;;;;;;;27.37;20.56;96758.47;5093143;28;20040;-65
2023/09/11 08:23:18;;;;;;;1.60;0.90;;;;;;;27.12;22.98;96744.94;5093007;28;20398;-66
2023/09/11 08:25:45;;;;;;;2.83;1.00;;;;;;;26.84;28.67;96740.50;5093009;28;20052;-65
2023/09/11 08:28:12;;;;;;;1.90;1.30;;;;;;;26.68;29.58;96746.59;5093094;28;20125;-65
2023/09/11 08:30:39;;;;;;;5.45;1.35;;;;;;;26.70;29.08;96749.94;5093067;28;20052;-65
2023/09/11 08:33:06;;;;;;;2.08;1.20;;;;;;;26.42;28.50;96744.69;5092951;28;20101;-64
2023/09/11 08:35:34;;;;;;;1.90;0.90;;;;;;;26.71;27.82;96740.06;5092911;28;20155;-63
2023/09/11 08:38:02;;;;;;;6.32;1.13;;;;;;;27.09;24.49;96731.81;5092880;28;20044;-66
2023/09/11 08:40:31;;;;;;;2.38;1.23;;;;;;;27.28;29.56;96728.06;5092944;28;20482;-64
2023/09/11 08:42:59;;;;;;;3.67;1.15;;;;;;;27.34;27.47;96727.44;5092782;28;20048;-68
2023/09/11 08:45:26;;;;;;;4.38;1.05;;;;;;;27.34;25.05;96729.25;5092804;28;20048;-65
2023/09/11 08:47:57;;;;;;;3.63;1.20;;;;;;;27.53;28.62;96730.84;5093428;28;20478;-65
2023/09/11 08:50:27;;;;;;;2.88;1.17;;;;;;;27.54;28.96;96721.78;5096730;28;20140;-62
2023/09/11 08:52:55;;;;;;;;;;;;;;;27.80;28.80;96726.28;5097293;28;20051;-62
2023/09/11 08:55:26;;;;;;;3.92;1.50;;;;;;;27.74;27.88;96718.88;5096691;28;19959;-61
2023/09/11 08:57:54;;;;;;;4.57;1.13;;;;;;;27.00;29.05;96712.97;5096700;28;20048;-63
2023/09/11 09:00:21;;;;;;;7.78;1.40;;;;;;;26.92;30.61;96715.59;5096585;28;20459;-67
2023/09/11 09:02:49;;;;;;;2.83;1.38;;;;;;;27.02;30.12;96706.63;5096471;28;20102;-64
2023/09/11 09:05:17;;;;;;;5.03;1.30;;;;;;;27.29;29.64;96712.78;5096638;28;20048;-67
2023/09/11 09:07:46;;;;;;;6.25;1.45;;;;;;;27.43;29.51;96712.19;5096232;28;20110;-66
2023/09/11 09:10:14;;;;;;;6.28;1.60;;;;;;;27.65;28.54;96706.41;5096383;28;20056;-67
2023/09/11 09:12:44;;;;;;;5.30;1.60;;;;;;;27.80;28.82;96709.31;5096367;28;20106;-66
2023/09/11 09:15:12;;;;;;;5.33;1.67;;;;;;;27.97;28.57;96713.75;5096338;28;20051;-68
2023/09/11 09:17:39;;;;;;;5.15;1.52;;;;;;;28.18;27.17;96703.53;5096169;28;20071;-66
2023/09/11 09:20:07;;;;;;;3.90;1.60;;;;;;;28.33;27.39;96709.97;5096177;28;20048;-67
2023/09/11 09:22:35;;;;;;;4.65;1.75;;;;;;;28.29;27.75;96702.38;5096142;28;20497;-64
2023/09/11 09:25:03;;;;;;;4.75;1.85;;;;;;;28.45;27.34;96707.78;5096243;28;20438;-67
2023/09/11 09:27:36;;;;;;;7.85;1.80;;;;;;;28.43;26.61;96712.47;5096111;28;20080;-68
2023/09/11 09:30:19;;;;;;;8.55;1.90;;;;;;;28.02;26.99;96707.03;5095940;28;20090;-69
2023/09/11 09:32:47;;;;;;;6.05;2.17;;;;;;;27.92;27.46;96697.25;5096047;28;20508;-65
2023/09/11 09:35:14;;;;;;;5.47;1.95;;;;;;;27.83;27.50;96704.47;5095858;28;20101;-67
2023/09/11 09:37:49;;;;;;;5.35;1.45;;;;;;;27.87;27.67;96697.75;5095836;28;20451;-65
2023/09/11 09:40:29;;;;;;;3.60;1.70;;;;;;;28.08;27.04;96695.63;5095967;28;20072;-67
2023/09/11 09:42:58;;;;;;;;;;;;;;;28.04;25.49;96697.78;5096130;28;20055;-65
2023/09/11 09:45:30;;;;;;;8.60;1.63;;;;;;;27.96;25.66;96684.34;5095736;28;19920;-64
2023/09/11 09:48:08;;;;;;;5.53;1.33;;;;;;;27.91;25.87;96682.16;5095715;28;20460;-61
2023/09/11 09:50:54;;;;;;;5.82;1.75;;;;;;;27.84;25.81;96676.59;5095649;28;20044;-67
2023/09/11 09:53:22;;;;;;;7.75;1.95;;;;;;;27.77;22.15;96689.00;5095557;28;20048;-63
2023/09/11 09:55:50;;;;;;;3.53;1.45;;;;;;;27.60;23.97;96675.47;5095635;28;20123;-65
2023/09/11 09:58:20;;;;;;;5.35;1.40;;;;;;;27.82;23.58;96678.63;5095244;28;20052;-66
2023/09/11 10:00:49;;;;;;;2.53;1.38;;;;;;;27.92;22.83;96666.84;5095090;28;20058;-68
2023/09/11 10:03:16;;;;;;;3.75;1.30;;;;;;;27.82;24.05;96669.69;5095340;28;20086;-65
2023/09/11 10:05:50;;;;;;;4.75;1.50;;;;;;;27.65;22.49;96664.28;5095270;28;20105;-66
2023/09/11 10:08:18;;;;;;;4.97;1.52;;;;;;;27.09;24.76;96659.34;5094969;28;20143;-62
2023/09/11 10:10:45;;;;;;;11.82;1.40;;;;;;;26.94;26.37;96665.25;5095218;28;20446;-65
2023/09/11 10:13:13;;;;;;;3.33;1.50;;;;;;;27.11;27.02;96658.19;5095257;28;20048;-64
2023/09/11 10:15:41;;;;;;;1.63;0.90;;;;;;;27.18;22.16;96661.06;5095023;28;20056;-62
2023/09/11 10:18:12;;;;;;;10.00;1.35;;;;;;;27.15;25.55;96657.88;5095097;28;20105;-64
2023/09/11 10:20:39;;;;;;;7.43;1.40;;;;;;;26.96;23.55;96654.38;5095031;28;20048;-67
2023/09/11 10:23:08;;;;;;;4.07;1.10;;;;;;;27.17;23.42;96647.78;5095058;28;20044;-67
2023/09/11 10:25:38;;;;;;;3.55;1.35;;;;;;;27.24;24.86;96649.69;5094840;28;20044;-68
2023/09/11 10:28:06;;;;;;;7.72;1.50;;;;;;;27.24;25.77;96651.53;5094833;28;20129;-69
2023/09/11 10:30:40;;;;;;;2.60;1.27;;;;;;;27.01;25.79;96646.72;5094800;28;20047;-64
2023/09/11 10:33:15;;;;;;;3.33;1.10;;;;;;;27.08;26.00;96649.59;5094774;28;20044;-70
2023/09/11 10:35:45;;;;;;;4.03;1.17;;;;;;;26.79;25.09;96637.34;5094665;28;20429;-64
2023/09/11 10:38:16;;;;;;;3.90;1.00;;;;;;;26.55;24.16;96637.03;5094620;28;20102;-63
2023/09/11 10:40:44;;;;;;;3.80;1.20;;;;;;;26.61;24.95;96632.91;5094592;28;20383;-66
2023/09/11 10:43:13;;;;;;;4.13;0.98;;;;;;;26.65;21.09;96636.94;5094607;28;20401;-64
2023/09/11 10:45:40;;;;;;;4.53;1.00;;;;;;;26.66;23.29;96635.13;5094570;28;20044;-65
2023/09/11 10:48:25;;;;;;;4.88;1.27;;;;;;;26.67;22.77;96637.59;5094563;28;20044;-65
2023/09/11 10:50:56;;;;;;;3.60;1.10;;;;;;;26.48;23.06;96633.28;5094412;28;20055;-67
2023/09/11 10:53:27;;;;;;;3.65;1.23;;;;;;;26.47;23.46;96631.63;5094651;28;20102;-64
2023/09/11 10:55:57;;;;;;;1.73;1.00;;;;;;;26.28;23.47;96625.44;5094410;28;20075;-66
2023/09/11 10:58:25;;;;;;;3.28;1.10;;;;;;;26.09;23.77;96623.75;5094354;28;20052;-67
2023/09/11 11:00:54;;;;;;;6.55;1.75;;;;;;;26.29;23.72;96615.53;5094282;28;20142;-62
2023/09/11 11:03:25;;;;;;;1.92;0.80;;;;;;;26.42;24.05;96616.00;5094275;28;20044;-64
2023/09/11 11:05:54;;;;;;;;;;;;;;;26.51;24.51;96614.22;5094633;28;20133;-65
2023/09/11 11:08:22;;;;;;;3.60;1.00;;;;;;;26.49;23.36;96613.56;5093834;28;19982;-66
2023/09/11 11:10:53;;;;;;;2.05;0.90;;;;;;;26.60;23.55;96613.28;5093027;28;20044;-67
2023/09/11 11:13:20;;;;;;;1.13;0.63;;;;;;;26.68;22.68;96608.97;5094001;28;20131;-67
2023/09/11 11:15:48;;;;;;;1.98;0.80;;;;;;;26.87;22.50;96607.88;5094003;28;20070;-66
2023/09/11 11:18:24;;;;;;;4.22;1.23;;;;;;;26.93;20.27;96601.03;5093856;28;20459;-68
2023/09/11 11:21:07;;;;;;;1.00;0.80;;;;;;;26.78;20.14;96596.28;5093898;28;20052;-66
2023/09/11 11:23:36;;;;;;;3.58;1.00;;;;;;;26.55;20.15;96601.34;5093842;28;20537;-65
2023/09/11 11:26:04;;;;;;;2.42;0.80;;;;;;;26.61;20.11;96588.13;5093766;28;20048;-68
2023/09/11 11:28:40;;;;;;;4.72;0.70;;;;;;;26.66;22.86;96589.53;5093705;28;20044;-66
2023/09/11 11:31:08;;;;;;;4.22;0.90;;;;;;;26.82;22.97;96586.06;5093578;28;20059;-67
2023/09/11 11:33:37;;;;;;;2.67;0.60;;;;;;;26.88;21.60;96585.44;5093624;28;20070;-64
2023/09/11 11:36:07;;;;;;;3.88;0.93;;;;;;;27.02;23.69;96588.56;5093577;28;20052;-67
2023/09/11 11:38:35;;;;;;;5.32;0.93;;;;;;;27.26;23.03;96582.41;5093619;28;20047;-67
2023/09/11 11:41:03;;;;;;;1.42;0.65;;;;;;;27.42;21.31;96583.47;5093543;28;20463;-64